createdAt,value
2022-12-12T00:02:30.274Z,100710.06
2022-12-12T00:05:56.358Z,100713.41
2022-12-12T00:09:18.068Z,100713.34
2022-12-12T00:12:39.969Z,100711.63
2022-12-12T00:16:01.988Z,100719.63
2022-12-12T00:19:23.799Z,100721.69
2022-12-12T00:22:47.247Z,100709.88
2022-12-12T00:26:15.134Z,100710.00
2022-12-12T00:29:37.135Z,100702.66
2022-12-12T00:32:59.141Z,100706.16
2022-12-12T00:36:24.305Z,100702.28
2022-12-12T00:39:47.165Z,100702.06
2022-12-12T00:43:08.874Z,100706.25
2022-12-12T00:46:30.502Z,100707.00
2022-12-12T00:49:52.203Z,100713.88
2022-12-12T00:53:14.329Z,100710.41
2022-12-12T00:56:37.595Z,100720.81
2022-12-12T00:59:59.423Z,100709.56
2022-12-12T01:03:21.865Z,100708.88
2022-12-12T01:06:43.869Z,100715.63
2022-12-12T01:10:07.584Z,100712.38
2022-12-12T01:13:31.014Z,100712.22
2022-12-12T01:16:52.814Z,100711.50
2022-12-12T01:20:19.626Z,100713.00
2022-12-12T01:23:42.113Z,100718.06
2022-12-12T01:27:03.813Z,100717.78
2022-12-12T01:30:28.135Z,100720.28
2022-12-12T01:33:50.052Z,100723.81
2022-12-12T01:37:11.761Z,100718.50
2022-12-12T01:40:33.865Z,100731.41
2022-12-12T01:43:56.284Z,100729.56
2022-12-12T01:47:22.203Z,100721.34
2022-12-12T01:50:45.670Z,100728.28
2022-12-12T01:54:11.407Z,100728.28
2022-12-12T01:57:37.469Z,100727.09
2022-12-12T02:00:59.977Z,100722.50
2022-12-12T02:04:24.093Z,100718.75
2022-12-12T02:07:45.789Z,100724.84
2022-12-12T02:11:07.717Z,100721.38
2022-12-12T02:14:33.287Z,100727.31
2022-12-12T02:18:12.373Z,100721.16
2022-12-12T02:21:43.450Z,100727.06
2022-12-12T02:25:37.875Z,100728.78
2022-12-12T02:29:37.394Z,100736.50
2022-12-12T02:33:27.370Z,100734.72
2022-12-12T02:37:00.670Z,100729.41
2022-12-12T02:40:26.018Z,100726.78
2022-12-12T02:43:57.697Z,100724.94
2022-12-12T02:47:22.706Z,100727.47
2022-12-12T02:50:48.618Z,100725.63
2022-12-12T02:54:15.477Z,100729.97
2022-12-12T02:57:37.454Z,100734.22
2022-12-12T03:01:12.189Z,100732.38
2022-12-12T03:05:02.754Z,100734.09
2022-12-12T03:08:41.766Z,100723.59
2022-12-12T03:12:09.934Z,100730.50
2022-12-12T03:15:43.934Z,100729.63
2022-12-12T03:19:11.998Z,100733.03
2022-12-12T03:22:42.731Z,100727.78
2022-12-12T03:26:11.669Z,100725.09
2022-12-12T03:29:39.365Z,100726.81
2022-12-12T03:33:05.491Z,100725.00
2022-12-12T03:36:31.430Z,100723.31
2022-12-12T03:39:58.496Z,100727.63
2022-12-12T03:43:26.258Z,100719.63
2022-12-12T03:46:52.993Z,100712.53
2022-12-12T03:50:20.799Z,100716.84
2022-12-12T03:53:48.228Z,100715.88
2022-12-12T03:57:13.161Z,100718.44
2022-12-12T04:00:38.092Z,100712.53
2022-12-12T04:04:04.242Z,100708.16
2022-12-12T04:07:31.811Z,100722.06
2022-12-12T04:11:15.645Z,100722.00
2022-12-12T04:14:55.911Z,100719.78
2022-12-12T04:18:26.676Z,100730.34
2022-12-12T04:22:16.737Z,100724.09
2022-12-12T04:26:10.730Z,100724.09
2022-12-12T04:29:38.838Z,100725.63
2022-12-12T04:33:07.260Z,100718.50
2022-12-12T04:36:32.121Z,100720.16
2022-12-12T04:39:57.848Z,100712.34
2022-12-12T04:43:22.911Z,100712.03
2022-12-12T04:46:46.076Z,100714.38
2022-12-12T04:50:10.454Z,100717.72
2022-12-12T04:53:39.566Z,100718.44
2022-12-12T04:57:06.349Z,100709.66
2022-12-12T05:00:35.258Z,100722.91
2022-12-12T05:03:59.886Z,100715.06
2022-12-12T05:07:28.921Z,100719.84
2022-12-12T05:10:56.160Z,100719.56
2022-12-12T05:14:19.198Z,100715.97
2022-12-12T05:17:45.647Z,100715.88
2022-12-12T05:21:11.865Z,100729.00
2022-12-12T05:24:33.631Z,100728.41
2022-12-12T05:27:57.262Z,100724.97
2022-12-12T05:31:19.803Z,100723.31
2022-12-12T05:34:41.778Z,100731.81
2022-12-12T05:38:03.846Z,100730.78
2022-12-12T05:41:25.442Z,100733.31
2022-12-12T05:44:48.964Z,100732.66
2022-12-12T05:48:10.738Z,100739.47
2022-12-12T05:51:32.704Z,100736.84
2022-12-12T05:54:55.783Z,100735.44
2022-12-12T05:58:17.874Z,100738.69
2022-12-12T06:01:40.944Z,100742.69
2022-12-12T06:05:02.847Z,100746.22
2022-12-12T06:08:25.325Z,100743.59
2022-12-12T06:11:47.314Z,100755.81
2022-12-12T06:15:10.560Z,100753.72
2022-12-12T06:18:33.682Z,100753.19
2022-12-12T06:21:55.279Z,100755.41
2022-12-12T06:25:17.151Z,100769.19
2022-12-12T06:28:39.904Z,100768.47
2022-12-12T06:32:01.578Z,100765.91
2022-12-12T06:35:24.827Z,100765.84
2022-12-12T06:38:46.881Z,100774.25
2022-12-12T06:42:08.750Z,100764.16
2022-12-12T06:45:30.742Z,100768.88
2022-12-12T06:48:53.156Z,100773.84
2022-12-12T06:52:16.592Z,100781.06
2022-12-12T06:55:42.830Z,100788.16
2022-12-12T06:59:04.823Z,100784.69
2022-12-12T07:02:29.938Z,100794.69
2022-12-12T07:05:52.243Z,100791.78
2022-12-12T07:09:15.738Z,100791.56
2022-12-12T07:12:37.699Z,100795.81
2022-12-12T07:15:59.581Z,100814.63
2022-12-12T07:19:22.727Z,100805.31
2022-12-12T07:22:44.295Z,100800.84
2022-12-12T07:26:09.810Z,100798.66
2022-12-12T07:29:31.578Z,100802.09
2022-12-12T07:32:53.647Z,100806.25
2022-12-12T07:36:16.706Z,100810.97
2022-12-12T07:39:38.689Z,100810.97
2022-12-12T07:43:02.202Z,100809.91
2022-12-12T07:46:26.971Z,100809.50
2022-12-12T07:49:49.010Z,100808.25
2022-12-12T07:53:11.016Z,100821.06
2022-12-12T07:56:33.039Z,100821.88
2022-12-12T07:59:56.326Z,100817.66
2022-12-12T08:03:18.262Z,100816.34
2022-12-12T08:06:40.116Z,100820.66
2022-12-12T08:10:01.974Z,100831.75
2022-12-12T08:13:23.886Z,100830.88
2022-12-12T08:16:47.175Z,100839.53
2022-12-12T08:20:10.435Z,100831.53
2022-12-12T08:23:32.528Z,100830.09
2022-12-12T08:26:54.459Z,100833.44
2022-12-12T08:30:16.406Z,100843.06
2022-12-12T08:33:39.847Z,100847.00
2022-12-12T08:37:01.719Z,100850.00
2022-12-12T08:40:24.168Z,100853.81
2022-12-12T08:43:46.763Z,100854.72
2022-12-12T08:47:08.563Z,100861.41
2022-12-12T08:50:31.438Z,100860.22
2022-12-12T08:53:54.345Z,100864.81
2022-12-12T08:57:16.143Z,100868.94
2022-12-12T09:00:38.354Z,100871.00
2022-12-12T09:04:00.252Z,100877.53
2022-12-12T09:07:23.390Z,100888.13
2022-12-12T09:10:50.086Z,100881.97
2022-12-12T09:14:12.179Z,100890.69
2022-12-12T09:17:34.238Z,100892.06
2022-12-12T09:20:57.408Z,100888.81
2022-12-12T09:24:20.806Z,100893.09
2022-12-12T09:27:42.621Z,100899.13
2022-12-12T09:31:06.024Z,100907.47
2022-12-12T09:34:27.835Z,100908.19
2022-12-12T09:37:49.783Z,100909.03
2022-12-12T09:41:17.000Z,100910.63
2022-12-12T09:44:39.784Z,100908.78
2022-12-12T09:48:04.238Z,100905.16
2022-12-12T09:51:25.960Z,100909.16
2022-12-12T09:54:47.700Z,100906.41
2022-12-12T09:58:27.495Z,100902.97
2022-12-12T10:01:59.291Z,100900.59
2022-12-12T10:05:31.199Z,100907.94
2022-12-12T10:09:05.310Z,100899.78
2022-12-12T10:12:27.975Z,100902.47
2022-12-12T10:15:54.819Z,100907.69
2022-12-12T10:19:21.812Z,100900.38
2022-12-12T10:22:50.705Z,100908.44
2022-12-12T10:26:18.251Z,100904.03
2022-12-12T10:29:42.833Z,100911.78
2022-12-12T10:33:17.801Z,100904.72
2022-12-12T10:36:56.501Z,100904.78
2022-12-12T10:40:41.417Z,100896.41
2022-12-12T10:44:06.845Z,100902.44
2022-12-12T10:47:28.933Z,100889.09
2022-12-12T10:50:57.423Z,100893.53
2022-12-12T10:54:21.642Z,100895.00
2022-12-12T10:57:43.227Z,100891.34
2022-12-12T11:01:11.939Z,100896.25
2022-12-12T11:04:33.432Z,100891.97
2022-12-12T11:08:03.772Z,100894.22
2022-12-12T11:11:27.047Z,100891.34
2022-12-12T11:14:50.912Z,100891.31
2022-12-12T11:18:16.869Z,100887.81
2022-12-12T11:21:39.616Z,100892.72
2022-12-12T11:25:02.847Z,100887.69
2022-12-12T11:28:31.090Z,100894.47
2022-12-12T11:31:53.334Z,100889.31
2022-12-12T11:35:24.261Z,100900.00
2022-12-12T11:38:50.164Z,100898.16
2022-12-12T11:42:22.653Z,100902.09
2022-12-12T11:45:44.512Z,100903.44
2022-12-12T11:49:19.156Z,100903.56
2022-12-12T11:52:41.064Z,100925.19
2022-12-12T11:56:25.911Z,100913.28
2022-12-12T12:00:07.183Z,100908.44
2022-12-12T12:03:38.889Z,100915.78
2022-12-12T12:07:15.066Z,100910.22
2022-12-12T12:10:47.649Z,100911.72
2022-12-12T12:14:25.250Z,100906.28
2022-12-12T12:18:26.704Z,100907.00
2022-12-12T12:22:01.825Z,100914.19
2022-12-12T12:25:36.937Z,100919.44
2022-12-12T12:29:21.142Z,100908.00
2022-12-12T12:33:01.756Z,100908.91
2022-12-12T12:36:30.946Z,100916.28
2022-12-12T12:40:06.097Z,100925.72
2022-12-12T12:43:51.273Z,100912.09
2022-12-12T12:47:25.494Z,100913.06
2022-12-12T12:50:53.623Z,100909.72
2022-12-12T12:54:23.859Z,100908.47
2022-12-12T12:57:49.558Z,100907.34
2022-12-12T13:01:15.483Z,100916.69
2022-12-12T13:04:42.945Z,100912.09
2022-12-12T13:08:14.135Z,100900.09
2022-12-12T13:11:40.224Z,100906.94
2022-12-12T13:15:05.900Z,100897.28
2022-12-12T13:18:37.169Z,100891.41
2022-12-12T13:22:10.564Z,100902.69
2022-12-12T13:25:39.911Z,100895.44
2022-12-12T13:29:06.653Z,100898.22
2022-12-12T13:32:57.689Z,100899.94
2022-12-12T13:36:29.083Z,100907.78
2022-12-12T13:40:00.332Z,100911.06
2022-12-12T13:43:30.343Z,100905.66
2022-12-12T13:46:53.261Z,100912.22
2022-12-12T13:50:22.611Z,100905.22
2022-12-12T13:53:45.133Z,100904.75
2022-12-12T13:57:11.434Z,100917.69
2022-12-12T14:00:34.323Z,100919.25
2022-12-12T14:03:57.627Z,100924.16
2022-12-12T14:07:24.051Z,100925.75
2022-12-12T14:11:01.094Z,100921.53
2022-12-12T14:14:23.974Z,100921.63
2022-12-12T14:17:54.506Z,100926.63
2022-12-12T14:21:19.822Z,100935.06
2022-12-12T14:25:06.884Z,100933.72
2022-12-12T14:28:30.204Z,100934.41
2022-12-12T14:32:01.397Z,100945.44
2022-12-12T14:35:35.542Z,100950.91
2022-12-12T14:39:10.588Z,100949.81
2022-12-12T14:43:20.977Z,100953.03
2022-12-12T14:46:24.444Z,100954.47
2022-12-12T14:49:46.688Z,100950.97
2022-12-12T14:53:17.110Z,100950.44
2022-12-12T14:56:46.330Z,100944.75
2022-12-12T15:00:19.204Z,100945.41
2022-12-12T15:03:45.717Z,100945.44
2022-12-12T15:07:22.575Z,100961.81
2022-12-12T15:10:44.499Z,100964.44
2022-12-12T15:14:07.604Z,100969.03
2022-12-12T15:17:31.954Z,100960.97
2022-12-12T15:20:57.924Z,100953.69
2022-12-12T15:24:23.072Z,100962.38
2022-12-12T15:27:52.306Z,100967.56
2022-12-12T15:31:19.793Z,100978.16
2022-12-12T15:34:43.962Z,100975.25
2022-12-12T15:38:12.438Z,100975.97
2022-12-12T15:41:34.452Z,100978.69
2022-12-12T15:44:56.960Z,100984.75
2022-12-12T15:48:20.682Z,100978.28
2022-12-12T15:51:42.307Z,100974.88
2022-12-12T15:55:05.530Z,100972.06
2022-12-12T15:58:30.404Z,100971.31
2022-12-12T16:01:52.003Z,100963.94
2022-12-12T16:05:30.220Z,100966.84
2022-12-12T16:09:01.015Z,100966.59
2022-12-12T16:12:57.620Z,100967.47
2022-12-12T16:16:42.653Z,100961.72
2022-12-12T16:20:07.707Z,100971.25
2022-12-12T16:23:32.926Z,100964.22
2022-12-12T16:26:58.773Z,100971.00
2022-12-12T16:30:20.806Z,100979.88
2022-12-12T16:33:43.000Z,100980.44
2022-12-12T16:37:04.834Z,100980.53
2022-12-12T16:40:28.038Z,100992.81
2022-12-12T16:43:49.874Z,100987.06
2022-12-12T16:47:19.347Z,100996.31
2022-12-12T16:50:40.962Z,101004.09
2022-12-12T16:54:02.955Z,100996.22
2022-12-12T16:57:26.466Z,100997.06
2022-12-12T17:00:49.369Z,100983.78
2022-12-12T17:04:19.912Z,100979.63
2022-12-12T17:07:41.565Z,100986.59
2022-12-12T17:11:09.963Z,100977.00
2022-12-12T17:14:34.038Z,100985.00
2022-12-12T17:17:56.395Z,100992.13
2022-12-12T17:21:17.838Z,100996.31
2022-12-12T17:24:39.284Z,101001.56
2022-12-12T17:28:01.184Z,101007.69
2022-12-12T17:31:24.208Z,101001.38
2022-12-12T17:34:45.821Z,101010.72
2022-12-12T17:38:09.200Z,101015.13
2022-12-12T17:41:34.509Z,101013.19
2022-12-12T17:44:55.974Z,101010.66
2022-12-12T17:48:19.275Z,101005.47
2022-12-12T17:51:41.310Z,101014.97
2022-12-12T17:55:52.180Z,101016.06
2022-12-12T17:58:46.538Z,101022.16
2022-12-12T18:02:08.526Z,101030.81
2022-12-12T18:05:32.444Z,101034.34
2022-12-12T18:08:55.621Z,101037.16
2022-12-12T18:12:17.322Z,101032.13
2022-12-12T18:15:41.345Z,101034.78
2022-12-12T18:19:03.437Z,101031.34
2022-12-12T18:22:26.619Z,101031.31
2022-12-12T18:25:48.218Z,101030.50
2022-12-12T18:29:11.928Z,101026.13
2022-12-12T18:32:33.865Z,101033.28
2022-12-12T18:36:01.972Z,101039.50
2022-12-12T18:39:24.830Z,101035.72
2022-12-12T18:42:46.967Z,101041.25
2022-12-12T18:46:10.797Z,101043.59
2022-12-12T18:49:32.607Z,101041.75
2022-12-12T18:52:56.070Z,101033.41
2022-12-12T18:56:21.580Z,101042.16
2022-12-12T18:59:43.457Z,101033.47
2022-12-12T19:03:06.177Z,101037.72
2022-12-12T19:06:33.757Z,101037.78
2022-12-12T19:09:55.695Z,101034.22
2022-12-12T19:13:19.095Z,101032.56
2022-12-12T19:16:40.936Z,101042.84
2022-12-12T19:20:02.838Z,101041.03
2022-12-12T19:23:24.301Z,101042.75
2022-12-12T19:26:46.513Z,101034.22
2022-12-12T19:30:12.323Z,101040.28
2022-12-12T19:33:34.482Z,101045.50
2022-12-12T19:36:56.247Z,101059.38
2022-12-12T19:40:19.008Z,101055.00
2022-12-12T19:43:40.987Z,101069.81
2022-12-12T19:47:03.966Z,101065.63
2022-12-12T19:50:25.571Z,101069.19
2022-12-12T19:53:49.754Z,101072.00
2022-12-12T19:57:11.699Z,101068.78
2022-12-12T20:00:33.620Z,101072.53
2022-12-12T20:03:58.933Z,101070.81
2022-12-12T20:07:20.794Z,101075.13
2022-12-12T20:10:42.671Z,101076.03
2022-12-12T20:14:05.246Z,101070.00
2022-12-12T20:17:27.231Z,101065.50
2022-12-12T20:20:56.847Z,101067.13
2022-12-12T20:24:19.618Z,101076.50
2022-12-12T20:27:42.234Z,101075.63
2022-12-12T20:31:05.845Z,101079.03
2022-12-12T20:34:28.087Z,101078.94
2022-12-12T20:37:51.482Z,101080.78
2022-12-12T20:41:14.780Z,101087.06
2022-12-12T20:44:36.755Z,101082.38
2022-12-12T20:48:01.710Z,101082.97
2022-12-12T20:51:54.262Z,101075.81
2022-12-12T20:55:13.521Z,101080.09
2022-12-12T20:58:35.718Z,101072.91
2022-12-12T21:01:57.763Z,101080.56
2022-12-12T21:05:19.493Z,101080.63
2022-12-12T21:08:41.763Z,101084.84
2022-12-12T21:12:05.434Z,101084.84
2022-12-12T21:15:27.316Z,101081.28
2022-12-12T21:18:51.746Z,101090.69
2022-12-12T21:22:13.838Z,101095.78
2022-12-12T21:25:37.375Z,101086.97
2022-12-12T21:29:02.371Z,101082.63
2022-12-12T21:32:24.510Z,101083.31
2022-12-12T21:35:47.248Z,101075.31
2022-12-12T21:39:10.388Z,101082.19
2022-12-12T21:42:32.367Z,101078.66
2022-12-12T21:45:55.490Z,101075.94
2022-12-12T21:49:26.489Z,101074.06
2022-12-12T21:53:12.645Z,101076.56
2022-12-12T21:56:34.476Z,101085.19
2022-12-12T21:59:56.394Z,101082.47
2022-12-12T22:03:19.473Z,101080.78
2022-12-12T22:06:41.770Z,101079.84
2022-12-12T22:10:10.990Z,101069.34
2022-12-12T22:13:39.644Z,101067.56
2022-12-12T22:17:02.242Z,101070.97
2022-12-12T22:20:25.639Z,101062.28
2022-12-12T22:23:50.777Z,101069.16
2022-12-12T22:27:12.349Z,101065.66
2022-12-12T22:30:34.433Z,101071.63
2022-12-12T22:33:59.243Z,101056.88
2022-12-12T22:37:22.327Z,101062.13
2022-12-12T22:40:44.093Z,101060.31
2022-12-12T22:44:07.482Z,101063.00
2022-12-12T22:47:29.374Z,101069.03
2022-12-12T22:50:51.891Z,101073.50
2022-12-12T22:54:15.266Z,101073.28
2022-12-12T22:57:37.316Z,101072.28
2022-12-12T23:01:07.110Z,101060.81
2022-12-12T23:04:28.729Z,101056.28
2022-12-12T23:07:50.877Z,101058.88
2022-12-12T23:11:15.857Z,101067.66
2022-12-12T23:14:37.737Z,101065.72
2022-12-12T23:17:59.690Z,101061.50
2022-12-12T23:21:23.914Z,101058.09
2022-12-12T23:24:45.920Z,101066.84
2022-12-12T23:28:13.780Z,101072.00
2022-12-12T23:31:37.484Z,101075.69
2022-12-12T23:34:59.513Z,101069.41
2022-12-12T23:38:21.777Z,101068.50
2022-12-12T23:41:43.338Z,101067.53
2022-12-12T23:45:08.276Z,101063.09
2022-12-12T23:48:30.822Z,101056.97
2022-12-12T23:51:53.716Z,101053.53
2022-12-12T23:55:15.558Z,101049.00
2022-12-12T23:58:37.128Z,101055.94
